Scroll down
FLIGHT INFORMATION
All Nippon Airways

ANA8532

At Arrival Gate

RJAA
 KSEA
DATE: 2021-11-14
GATE: G6
GATE DEPARTURE: 19:04
TAKEOFF: 19:19
DATE: 2021-11-15
GATE:  -
LANDING: 03:12
GATE ARRIVAL: 03:16
FLIGHT DATA
Crew: 
Speed: 
915 kph
Altitude: 
39,035 ft
Stage Length: 
7,655.7 km
Block Time: 
8.1 hrs
Flight Time: 
7.9 hrs
Fuel Used: 
52,722 kg
Cleared Route: RJAA GULBO TASID NOLAX AVBET EMRON 42E60 45E70 48E80 50N70 51N60 51N50 50N40 PRETY TAMRU TOU KSEA
TRACK DATA
50,000 ft 1,000 kts
AIRCRAFT INFO AND CUMULATIVE STATS
Aircraft Type: 
B77L
Registration: 
SELCAL: 
MSN/LN: 
0 / 1
Operator: 
Total Flights: 
2
Total Block Time: 
9.6 hrs
Total Flight Time: 
9.1 hrs
Total Fuel Used: 
61,327 kg
DATALINK LOG | Newest first | Current as of: 2022-10-04 20:04:26
LABEL SEQUENCE CONTENT Dn/Up
QD435703:16 52.3▼ Dn
QC395303:12▼ Dn
2U4858KSEA 150453Z 19014G24KT 4SM -RA BR BKN014 OVC020 14/13 A2988 RMK AO2 PK WND 22029/0421 SLP124 P0004 T01440133 $▲ Up
2S1533KSEA▼ Dn
QB114619:19▼ Dn
QA573219:04 168.7▼ Dn
2U5600RJAA 141730Z 31003KT 9999 MIFG FEW020 07/06 Q1015 NOSIG▲ Up
2S5712RJAA▼ Dn
Q05611[LINK ACK]▲ Up
Q05611[LINK TEST]▼ Dn


AIRCRAFT HISTORY
FLIGHT DATE FLIGHT NO. ORIGIN DESTINATION CLEARED ROUTE BLOCK TIME FLIGHT TIME FUEL USED PILOT
2021-11-14ANA8532RJAA KSEA RJAA GULBO TASID NOLAX AVBET EMRON 42E60 45E70 48E80 50N70 51N60 51N50 50N40 PRETY TAMRU TOU KSEA8.1 hrs7.9 hrs116,232 lbRyan Syferd
2020-12-10ANA1210RJBB RJAA 1.5 hrs1.2 hrs18,970 lbCharles Harris